»·PEaware :: N815M KSAC-KFAT

N815M :: KSAC-KFAT

FLIGHT INFORMATION

Flight Status: Arrived
Operator: Privately registered:
United States
More flights under this callsign
Pilot: Robert C. (30425)
Aircraft: BEECH AIRCRAFT DEBONAIR BONANZA
(BE33)
More flights by this aircraft type
Origin: KSAC Sacramento Executive
United States
Destination: KFAT Fresno Yosemite Intl
United States
More flights between these airports :: More routes between these airports
Route: SAC HYP CZQ
File this flight plan on PilotEdge
Remarks:
Altitude:
(Current/Filed)
5,500ft
Speed:
(Current/Filed)
165kts
Departed: 01-Aug-20 08:21 AM
Arrived: 01-Aug-20 09:24 AM
Distance/Time
Traveled:
134nm/1:03
Distance/Time
To Go:
Arrived

Flight Plot

Page will automatically refresh every two minutes.


Map Options




Map Legend


Flown Route
Filed Route
Departure Airport
Arrival Airport
Navaid (VOR, NDB)
Fix

Horizontal Profiles

Position Reports

Time Latitude Longitude Heading Altitude Ground
Speed
01-Aug-20 08:09 38.520094 -121.492912 235 24ft 0kts
01-Aug-20 08:10 38.520094 -121.492912 235 24ft 0kts
01-Aug-20 08:11 38.520094 -121.492912 235 24ft 0kts
01-Aug-20 08:12 38.520094 -121.492912 235 24ft 0kts
01-Aug-20 08:13 38.520094 -121.492912 235 24ft 0kts
01-Aug-20 08:14 38.520094 -121.492912 235 24ft 0kts
01-Aug-20 08:15 38.520094 -121.492912 235 24ft 0kts
01-Aug-20 08:16 38.519637 -121.493256 140 24ft 2kts
01-Aug-20 08:17 38.519461 -121.492517 99 24ft 3kts
01-Aug-20 08:18 38.519201 -121.490665 100 23ft 5kts
01-Aug-20 08:19 38.519173 -121.490481 102 24ft 0kts
01-Aug-20 08:20 38.513072 -121.494120 211 101ft 78kts
01-Aug-20 08:21 38.491900 -121.509780 211 1059ft 107kts
01-Aug-20 08:22 38.462744 -121.532917 213 1810ft 134kts
01-Aug-20 08:23 38.430444 -121.559473 213 2520ft 140kts
01-Aug-20 08:24 38.391614 -121.556508 172 3225ft 143kts
01-Aug-20 08:25 38.355918 -121.533852 153 3921ft 143kts
01-Aug-20 08:26 38.322429 -121.507697 124 4598ft 144kts
01-Aug-20 08:27 38.304155 -121.462826 119 5307ft 142kts
01-Aug-20 08:28 38.285651 -121.417248 119 5492ft 147kts
01-Aug-20 08:29 38.266561 -121.370196 120 5490ft 149kts
01-Aug-20 08:30 38.246889 -121.323923 120 5490ft 147kts
01-Aug-20 08:31 38.225601 -121.279037 121 5491ft 150kts
01-Aug-20 08:32 38.202670 -121.233950 121 5491ft 152kts
01-Aug-20 08:33 38.179879 -121.188390 121 5492ft 152kts
01-Aug-20 08:34 38.157236 -121.142653 121 5500ft 152kts
01-Aug-20 08:35 38.134188 -121.097316 122 5509ft 152kts
01-Aug-20 08:36 38.104118 -121.060523 145 5515ft 152kts
01-Aug-20 08:37 38.068958 -121.030787 147 5528ft 151kts
01-Aug-20 08:38 38.033528 -121.001660 147 5527ft 152kts
01-Aug-20 08:39 37.997933 -120.972315 147 5522ft 152kts
01-Aug-20 08:40 37.962005 -120.942594 147 5516ft 155kts
01-Aug-20 08:41 37.925666 -120.912514 147 5511ft 155kts
01-Aug-20 08:42 37.889316 -120.882366 147 5510ft 156kts
01-Aug-20 08:43 37.853043 -120.852104 147 5508ft 156kts
01-Aug-20 08:44 37.816706 -120.821569 147 5504ft 156kts
01-Aug-20 08:45 37.780279 -120.791143 147 5497ft 157kts
01-Aug-20 08:46 37.743168 -120.760570 148 5491ft 159kts
01-Aug-20 08:47 37.705949 -120.729868 147 5491ft 159kts
01-Aug-20 08:48 37.668700 -120.699151 147 5491ft 159kts
01-Aug-20 08:49 37.631139 -120.669242 149 5491ft 159kts
01-Aug-20 08:50 37.593028 -120.640161 149 5491ft 159kts
01-Aug-20 08:51 37.555021 -120.611222 149 5491ft 159kts
01-Aug-20 08:52 37.516641 -120.582980 150 5491ft 159kts
01-Aug-20 08:53 37.478267 -120.554988 150 5491ft 159kts
01-Aug-20 08:54 37.439524 -120.527734 151 5491ft 159kts
01-Aug-20 08:55 37.400740 -120.500901 152 5489ft 159kts
01-Aug-20 08:56 37.361531 -120.475013 153 5483ft 156kts
01-Aug-20 08:57 37.323583 -120.451011 154 5483ft 150kts
01-Aug-20 08:58 37.286252 -120.427960 154 5482ft 148kts
01-Aug-20 08:59 37.247983 -120.407926 161 5483ft 147kts
01-Aug-20 09:00 37.216415 -120.377742 125 5484ft 149kts
01-Aug-20 09:01 37.192019 -120.335019 126 5396ft 154kts
01-Aug-20 09:02 37.166832 -120.289407 125 5108ft 161kts
01-Aug-20 09:03 37.141280 -120.242741 125 4810ft 162kts
01-Aug-20 09:04 37.116920 -120.198184 125 4470ft 142kts
01-Aug-20 09:05 37.095604 -120.159387 124 4148ft 129kts
01-Aug-20 09:06 37.075374 -120.123345 124 3841ft 125kts
01-Aug-20 09:07 37.055268 -120.087733 127 3541ft 125kts
01-Aug-20 09:08 37.034322 -120.056521 129 3505ft 108kts
01-Aug-20 09:09 37.015425 -120.028507 129 3514ft 111kts
01-Aug-20 09:10 36.993273 -119.996526 134 3512ft 129kts
01-Aug-20 09:11 36.966943 -119.964049 136 3509ft 135kts
01-Aug-20 09:12 36.938674 -119.931347 136 3312ft 144kts
01-Aug-20 09:13 36.908303 -119.896237 138 2826ft 150kts
01-Aug-20 09:14 36.874388 -119.865221 143 2406ft 147kts
01-Aug-20 09:15 36.845071 -119.835066 152 2398ft 130kts
01-Aug-20 09:16 36.814050 -119.813526 145 2401ft 126kts
01-Aug-20 09:17 36.789377 -119.786327 128 2129ft 127kts
01-Aug-20 09:18 36.769289 -119.752447 125 1629ft 111kts
01-Aug-20 09:19 36.750109 -119.723616 134 1361ft 103kts
01-Aug-20 09:20 36.733165 -119.698952 61 1117ft 107kts
01-Aug-20 09:21 36.755190 -119.681858 331 1025ft 93kts
01-Aug-20 09:22 36.770978 -119.707154 307 345ft 78kts
01-Aug-20 09:23 36.776478 -119.719042 261 331ft 0kts
01-Aug-20 09:24 36.774341 -119.720065 156 328ft 20kts

Navigation Log

Ident Type
Flight plan parsing failed, navigation log unavailable